HAZ130 ZSPD-RJTT
Flight info
| Callsign | HAZ130 |
|---|---|
| Flight time | N/A |
| Altitude | 41000 |
| Route | LAM92D LAMEN A593 SADLI Y590 BEDAR Y591 FUE Y23 ARTIC Y71 XAC XAC1B |
| Aircraft | A359/H-SDE2E3GHIJ3J4J5LM1ORWXY/LB1D1 |
Departure
| Time | 2026-05-08 05:06 |
|---|---|
| Airport | Shanghai Pudong International Airport (ZSPD) |
Arrival
| Time | N/A |
|---|---|
| Airport | Tokyo Haneda International Airport (RJTT) |
| Time | Latitude | Longitude | Altitude | Speed | Heading |
|---|---|---|---|---|---|
| 2026-05-08 04:28 | 31.13665 | 121.81368 | 29 ft | 0 kts | 251° |
| 2026-05-08 04:57 | 31.13670 | 121.81387 | 29 ft | 4 kts | 252° |
| 2026-05-08 04:57 | 31.13678 | 121.81417 | 29 ft | 3 kts | 252° |
| 2026-05-08 04:57 | 31.13685 | 121.81438 | 28 ft | 4 kts | 222° |
| 2026-05-08 04:58 | 31.13703 | 121.81450 | 28 ft | 4 kts | 186° |
| 2026-05-08 04:58 | 31.13728 | 121.81449 | 28 ft | 4 kts | 168° |
| 2026-05-08 04:58 | 31.13746 | 121.81444 | 28 ft | 1 kts | 162° |
| 2026-05-08 04:58 | 31.13748 | 121.81443 | 28 ft | 0 kts | 162° |
| 2026-05-08 05:01 | 31.13747 | 121.81444 | 28 ft | 1 kts | 162° |
| 2026-05-08 05:02 | 31.13723 | 121.81453 | 28 ft | 6 kts | 160° |
| 2026-05-08 05:02 | 31.13705 | 121.81504 | 28 ft | 8 kts | 78° |
| 2026-05-08 05:02 | 31.13725 | 121.81588 | 29 ft | 13 kts | 73° |
| 2026-05-08 05:02 | 31.13756 | 121.81700 | 29 ft | 15 kts | 77° |
| 2026-05-08 05:03 | 31.13698 | 121.81788 | 29 ft | 16 kts | 160° |
| 2026-05-08 05:03 | 31.13583 | 121.81826 | 29 ft | 19 kts | 162° |
| 2026-05-08 05:03 | 31.13442 | 121.81880 | 29 ft | 23 kts | 161° |
| 2026-05-08 05:03 | 31.13276 | 121.81943 | 28 ft | 27 kts | 162° |
| 2026-05-08 05:04 | 31.13094 | 121.82012 | 27 ft | 25 kts | 162° |
| 2026-05-08 05:04 | 31.12979 | 121.82056 | 28 ft | 27 kts | 162° |
| 2026-05-08 05:04 | 31.12810 | 121.82119 | 29 ft | 24 kts | 162° |
| 2026-05-08 05:04 | 31.12659 | 121.82176 | 29 ft | 13 kts | 162° |
| 2026-05-08 05:05 | 31.12614 | 121.82221 | 29 ft | 13 kts | 108° |
| 2026-05-08 05:05 | 31.12634 | 121.82334 | 29 ft | 16 kts | 70° |
| 2026-05-08 05:05 | 31.12709 | 121.82393 | 28 ft | 9 kts | 345° |
| 2026-05-08 05:05 | 31.12840 | 121.82335 | 28 ft | 48 kts | 341° |
| 2026-05-08 05:06 | 31.13395 | 121.82126 | 27 ft | 118 kts | 342° |
| 2026-05-08 05:06 | 31.14368 | 121.81757 | 84 ft | 171 kts | 344° |
| 2026-05-08 05:06 | 31.15537 | 121.81314 | 861 ft | 178 kts | 343° |
| 2026-05-08 05:06 | 31.16742 | 121.80961 | 1826 ft | 179 kts | 356° |
| 2026-05-08 05:07 | 31.17969 | 121.81144 | 2604 ft | 178 kts | 9° |
| 2026-05-08 05:07 | 31.19169 | 121.81459 | 3316 ft | 177 kts | 10° |
| 2026-05-08 05:07 | 31.20435 | 121.81770 | 3675 ft | 198 kts | 9° |
| 2026-05-08 05:07 | 31.21892 | 121.82080 | 3963 ft | 225 kts | 8° |
| 2026-05-08 05:08 | 31.23519 | 121.82381 | 4354 ft | 248 kts | 7° |
| 2026-05-08 05:08 | 31.25273 | 121.82663 | 5050 ft | 259 kts | 6° |
| 2026-05-08 05:08 | 31.27078 | 121.82935 | 5830 ft | 265 kts | 6° |
| 2026-05-08 05:08 | 31.28922 | 121.83220 | 6678 ft | 270 kts | 6° |
| 2026-05-08 05:09 | 31.30797 | 121.83513 | 7517 ft | 275 kts | 5° |
| 2026-05-08 05:09 | 31.32714 | 121.83814 | 8354 ft | 282 kts | 5° |
| 2026-05-08 05:09 | 31.34674 | 121.84134 | 9262 ft | 288 kts | 6° |
| 2026-05-08 05:09 | 31.36607 | 121.84872 | 10091 ft | 300 kts | 28° |
| 2026-05-08 05:10 | 31.38164 | 121.86591 | 10596 ft | 322 kts | 53° |
| 2026-05-08 05:10 | 31.40553 | 121.91422 | 11309 ft | 364 kts | 60° |
| 2026-05-08 05:10 | 31.41807 | 121.94076 | 11761 ft | 378 kts | 60° |
| 2026-05-08 05:11 | 31.43108 | 121.96783 | 12426 ft | 384 kts | 59° |
| 2026-05-08 05:11 | 31.44414 | 121.99464 | 13090 ft | 389 kts | 59° |
| 2026-05-08 05:11 | 31.45786 | 122.02287 | 13792 ft | 395 kts | 59° |
| 2026-05-08 05:11 | 31.47146 | 122.05108 | 14402 ft | 400 kts | 59° |
| 2026-05-08 05:12 | 31.48519 | 122.07956 | 14975 ft | 405 kts | 59° |
| 2026-05-08 05:12 | 31.49614 | 122.10226 | 15418 ft | 409 kts | 59° |
| 2026-05-08 05:12 | 31.51025 | 122.13149 | 15975 ft | 414 kts | 59° |
| 2026-05-08 05:12 | 31.52453 | 122.16108 | 16552 ft | 419 kts | 59° |
| 2026-05-08 05:13 | 31.53897 | 122.19101 | 17109 ft | 424 kts | 59° |
| 2026-05-08 05:13 | 31.55358 | 122.22131 | 17686 ft | 429 kts | 59° |
| 2026-05-08 05:13 | 31.56834 | 122.25197 | 18266 ft | 434 kts | 59° |
| 2026-05-08 05:13 | 31.58326 | 122.28296 | 18796 ft | 439 kts | 59° |
| 2026-05-08 05:14 | 31.59831 | 122.31425 | 19296 ft | 443 kts | 59° |
| 2026-05-08 05:14 | 31.61331 | 122.34601 | 19821 ft | 447 kts | 61° |
| 2026-05-08 05:14 | 31.62525 | 122.37993 | 20328 ft | 453 kts | 73° |
| 2026-05-08 05:14 | 31.63197 | 122.41623 | 20849 ft | 457 kts | 80° |
| 2026-05-08 05:15 | 31.63692 | 122.45322 | 21363 ft | 461 kts | 82° |
| 2026-05-08 05:15 | 31.64165 | 122.49060 | 21857 ft | 465 kts | 82° |
| 2026-05-08 05:15 | 31.64646 | 122.52833 | 22356 ft | 470 kts | 82° |
| 2026-05-08 05:15 | 31.65137 | 122.56636 | 22846 ft | 474 kts | 82° |
| 2026-05-08 05:16 | 31.65636 | 122.60475 | 23319 ft | 478 kts | 82° |
| 2026-05-08 05:16 | 31.66142 | 122.64351 | 23802 ft | 482 kts | 82° |
| 2026-05-08 05:16 | 31.66654 | 122.68254 | 24219 ft | 486 kts | 81° |
| 2026-05-08 05:16 | 31.67171 | 122.72193 | 24665 ft | 489 kts | 81° |
| 2026-05-08 05:17 | 31.67689 | 122.76153 | 25143 ft | 492 kts | 81° |
| 2026-05-08 05:17 | 31.68218 | 122.80133 | 25628 ft | 495 kts | 81° |
| 2026-05-08 05:17 | 31.68758 | 122.84140 | 26113 ft | 499 kts | 81° |
| 2026-05-08 05:17 | 31.69301 | 122.88171 | 26600 ft | 502 kts | 81° |
| 2026-05-08 05:18 | 31.69847 | 122.92237 | 27084 ft | 505 kts | 81° |
| 2026-05-08 05:18 | 31.70386 | 122.96266 | 27563 ft | 508 kts | 81° |
| 2026-05-08 05:18 | 31.70935 | 123.00379 | 28034 ft | 512 kts | 81° |
| 2026-05-08 05:18 | 31.71486 | 123.04515 | 28492 ft | 515 kts | 81° |
| 2026-05-08 05:19 | 31.72040 | 123.08690 | 28964 ft | 518 kts | 81° |
| 2026-05-08 05:19 | 31.72595 | 123.12882 | 29412 ft | 522 kts | 81° |
| 2026-05-08 05:19 | 31.73153 | 123.17108 | 29853 ft | 525 kts | 81° |
| 2026-05-08 05:19 | 31.73713 | 123.21356 | 30272 ft | 528 kts | 81° |
| 2026-05-08 05:20 | 31.74275 | 123.25638 | 30628 ft | 532 kts | 81° |
| 2026-05-08 05:20 | 31.74839 | 123.29943 | 30970 ft | 535 kts | 81° |
| 2026-05-08 05:20 | 31.75404 | 123.34268 | 31297 ft | 538 kts | 81° |
| 2026-05-08 05:20 | 31.75972 | 123.38627 | 31613 ft | 541 kts | 81° |
| 2026-05-08 05:21 | 31.76522 | 123.43015 | 31930 ft | 544 kts | 83° |
| 2026-05-08 05:21 | 31.76716 | 123.47451 | 32234 ft | 546 kts | 92° |
| 2026-05-08 05:21 | 31.76781 | 123.51918 | 32519 ft | 549 kts | 83° |
| 2026-05-08 05:21 | 31.77411 | 123.56363 | 32821 ft | 551 kts | 78° |
| 2026-05-08 05:22 | 31.78233 | 123.60755 | 33219 ft | 551 kts | 76° |
| 2026-05-08 05:22 | 31.79137 | 123.65122 | 33677 ft | 549 kts | 75° |
| 2026-05-08 05:22 | 31.80057 | 123.69479 | 34097 ft | 549 kts | 75° |
| 2026-05-08 05:22 | 31.80962 | 123.73840 | 34440 ft | 549 kts | 76° |
| 2026-05-08 05:23 | 31.81843 | 123.78215 | 34773 ft | 549 kts | 76° |
| 2026-05-08 05:23 | 31.82700 | 123.82596 | 35098 ft | 550 kts | 76° |
| 2026-05-08 05:23 | 31.83540 | 123.86974 | 35422 ft | 550 kts | 76° |
| 2026-05-08 05:23 | 31.84371 | 123.91366 | 35737 ft | 550 kts | 76° |
| 2026-05-08 05:24 | 31.85197 | 123.95760 | 36040 ft | 550 kts | 76° |
| 2026-05-08 05:24 | 31.86021 | 124.00156 | 36341 ft | 551 kts | 76° |
| 2026-05-08 05:24 | 31.86845 | 124.04558 | 36621 ft | 551 kts | 76° |
| 2026-05-08 05:24 | 31.87670 | 124.08962 | 36897 ft | 552 kts | 76° |
| 2026-05-08 05:25 | 31.88495 | 124.13378 | 37186 ft | 552 kts | 76° |
| 2026-05-08 05:25 | 31.89320 | 124.17794 | 37471 ft | 552 kts | 76° |
| 2026-05-08 05:25 | 31.90954 | 124.26566 | 37997 ft | 553 kts | 76° |
| 2026-05-08 05:26 | 31.91776 | 124.30991 | 38274 ft | 553 kts | 76° |
| 2026-05-08 05:26 | 31.92585 | 124.35355 | 38529 ft | 554 kts | 76° |
| 2026-05-08 05:26 | 31.93403 | 124.39778 | 38766 ft | 554 kts | 76° |
| 2026-05-08 05:26 | 31.94222 | 124.44216 | 38974 ft | 555 kts | 76° |
| 2026-05-08 05:27 | 31.95039 | 124.48652 | 39165 ft | 555 kts | 76° |
| 2026-05-08 05:27 | 31.95856 | 124.53095 | 39386 ft | 555 kts | 76° |
| 2026-05-08 05:27 | 31.96669 | 124.57531 | 39578 ft | 555 kts | 76° |
| 2026-05-08 05:27 | 31.97484 | 124.61980 | 39753 ft | 555 kts | 76° |
| 2026-05-08 05:28 | 31.98295 | 124.66421 | 39958 ft | 555 kts | 76° |
| 2026-05-08 05:28 | 31.99096 | 124.70817 | 40134 ft | 555 kts | 76° |
| 2026-05-08 05:28 | 31.99913 | 124.75309 | 40323 ft | 555 kts | 76° |
| 2026-05-08 05:28 | 32.00721 | 124.79759 | 40482 ft | 556 kts | 76° |
| 2026-05-08 05:29 | 32.01528 | 124.84216 | 40673 ft | 556 kts | 76° |
| 2026-05-08 05:29 | 32.02332 | 124.88665 | 40847 ft | 556 kts | 76° |
| 2026-05-08 05:29 | 32.03135 | 124.93116 | 41005 ft | 556 kts | 76° |
| 2026-05-08 05:29 | 32.03939 | 124.97582 | 41135 ft | 557 kts | 76° |
| 2026-05-08 05:30 | 32.04741 | 125.02047 | 41157 ft | 557 kts | 76° |
| 2026-05-08 05:30 | 32.06339 | 125.10970 | 41159 ft | 557 kts | 76° |
| 2026-05-08 05:31 | 32.07932 | 125.19906 | 41156 ft | 557 kts | 76° |
| 2026-05-08 05:31 | 32.09519 | 125.28846 | 41153 ft | 557 kts | 76° |
| 2026-05-08 05:32 | 32.11100 | 125.37794 | 41149 ft | 558 kts | 76° |
| 2026-05-08 05:32 | 32.12677 | 125.46755 | 41146 ft | 558 kts | 76° |
| 2026-05-08 05:33 | 32.14247 | 125.55717 | 41144 ft | 558 kts | 76° |
| 2026-05-08 05:33 | 32.15810 | 125.64676 | 41144 ft | 558 kts | 76° |
| 2026-05-08 05:34 | 32.17370 | 125.73657 | 41135 ft | 558 kts | 76° |
| 2026-05-08 05:34 | 32.18921 | 125.82626 | 41139 ft | 558 kts | 76° |
| 2026-05-08 05:35 | 32.20468 | 125.91615 | 41134 ft | 558 kts | 76° |
| 2026-05-08 05:35 | 32.22008 | 126.00599 | 41134 ft | 558 kts | 76° |
| 2026-05-08 05:36 | 32.23543 | 126.09595 | 41129 ft | 559 kts | 77° |
| 2026-05-08 05:36 | 32.25071 | 126.18595 | 41128 ft | 559 kts | 77° |
| 2026-05-08 05:37 | 32.26594 | 126.27607 | 41167 ft | 560 kts | 77° |
| 2026-05-08 05:37 | 32.28090 | 126.36652 | 41124 ft | 569 kts | 77° |
| 2026-05-08 05:38 | 32.29616 | 126.45885 | 41121 ft | 575 kts | 77° |
| 2026-05-08 05:38 | 32.31167 | 126.55222 | 41118 ft | 575 kts | 77° |
| 2026-05-08 05:39 | 32.32697 | 126.64436 | 41112 ft | 575 kts | 77° |
| 2026-05-08 05:39 | 32.34229 | 126.73705 | 41109 ft | 575 kts | 77° |
| 2026-05-08 05:40 | 32.35756 | 126.82987 | 41110 ft | 575 kts | 77° |
| 2026-05-08 05:40 | 32.37275 | 126.92270 | 41106 ft | 575 kts | 77° |
| 2026-05-08 05:41 | 32.38788 | 127.01564 | 41105 ft | 575 kts | 77° |
| 2026-05-08 05:41 | 32.40293 | 127.10856 | 41102 ft | 575 kts | 77° |
| 2026-05-08 05:42 | 32.41794 | 127.20162 | 41101 ft | 576 kts | 77° |
| 2026-05-08 05:42 | 32.43285 | 127.29455 | 41098 ft | 576 kts | 77° |
| 2026-05-08 05:43 | 32.44774 | 127.38778 | 41092 ft | 576 kts | 77° |
| 2026-05-08 05:43 | 32.46255 | 127.48103 | 41092 ft | 576 kts | 78° |
| 2026-05-08 05:44 | 32.47728 | 127.57422 | 41091 ft | 576 kts | 78° |
| 2026-05-08 05:44 | 32.49195 | 127.66748 | 41088 ft | 576 kts | 78° |
| 2026-05-08 05:45 | 32.50646 | 127.76015 | 41084 ft | 576 kts | 78° |
| 2026-05-08 05:45 | 32.52100 | 127.85352 | 41081 ft | 576 kts | 78° |
| 2026-05-08 05:46 | 32.53556 | 127.94753 | 41079 ft | 576 kts | 78° |
| 2026-05-08 05:46 | 32.54987 | 128.04036 | 41077 ft | 577 kts | 78° |
| 2026-05-08 05:47 | 32.56421 | 128.13389 | 41078 ft | 577 kts | 78° |
| 2026-05-08 05:47 | 32.57851 | 128.22757 | 41077 ft | 577 kts | 78° |
| 2026-05-08 05:48 | 32.59271 | 128.32117 | 41072 ft | 577 kts | 78° |
| 2026-05-08 05:48 | 32.60687 | 128.41499 | 41067 ft | 578 kts | 78° |
| 2026-05-08 05:49 | 32.62097 | 128.50881 | 41042 ft | 578 kts | 79° |
| 2026-05-08 05:49 | 32.63498 | 128.60261 | 41040 ft | 578 kts | 79° |
| 2026-05-08 05:50 | 32.64892 | 128.69636 | 41021 ft | 578 kts | 79° |
| 2026-05-08 05:50 | 32.66280 | 128.79028 | 41024 ft | 577 kts | 79° |
| 2026-05-08 05:51 | 32.67840 | 128.88378 | 41026 ft | 577 kts | 75° |
| 2026-05-08 05:51 | 32.69769 | 128.97614 | 41025 ft | 577 kts | 74° |
| 2026-05-08 05:52 | 32.71747 | 129.06843 | 41027 ft | 577 kts | 74° |
| 2026-05-08 05:52 | 32.73673 | 129.16098 | 41028 ft | 577 kts | 75° |
| 2026-05-08 05:53 | 32.75547 | 129.25311 | 41030 ft | 578 kts | 75° |
| 2026-05-08 05:53 | 32.77419 | 129.34598 | 41026 ft | 578 kts | 75° |
| 2026-05-08 05:54 | 32.79286 | 129.43884 | 41032 ft | 578 kts | 75° |
| 2026-05-08 05:54 | 32.81150 | 129.53179 | 41020 ft | 578 kts | 75° |
| 2026-05-08 05:55 | 32.82707 | 129.60968 | 41006 ft | 578 kts | 75° |
| 2026-05-08 05:55 | 32.84854 | 129.71776 | 41003 ft | 578 kts | 76° |
| 2026-05-08 05:56 | 32.86367 | 129.79509 | 40995 ft | 579 kts | 76° |
| 2026-05-08 05:56 | 32.88183 | 129.88852 | 40994 ft | 579 kts | 76° |
| 2026-05-08 05:57 | 32.89989 | 129.98179 | 40995 ft | 579 kts | 76° |
| 2026-05-08 05:57 | 32.91793 | 130.07533 | 40994 ft | 579 kts | 76° |
| 2026-05-08 05:58 | 32.93587 | 130.16874 | 40995 ft | 579 kts | 76° |
| 2026-05-08 05:58 | 32.95375 | 130.26215 | 40977 ft | 579 kts | 76° |
| 2026-05-08 05:59 | 32.97159 | 130.35569 | 40975 ft | 579 kts | 76° |
| 2026-05-08 05:59 | 32.98936 | 130.44924 | 40973 ft | 579 kts | 76° |
| 2026-05-08 06:00 | 33.00705 | 130.54286 | 40972 ft | 579 kts | 77° |
| 2026-05-08 06:00 | 33.02465 | 130.63640 | 40972 ft | 578 kts | 77° |
| 2026-05-08 06:01 | 33.04217 | 130.72996 | 40970 ft | 578 kts | 77° |
| 2026-05-08 06:01 | 33.05960 | 130.82343 | 40968 ft | 578 kts | 77° |
| 2026-05-08 06:02 | 33.07696 | 130.91692 | 40970 ft | 577 kts | 77° |
| 2026-05-08 06:02 | 33.09425 | 131.01035 | 40968 ft | 577 kts | 77° |
| 2026-05-08 06:03 | 33.11172 | 131.10387 | 40959 ft | 577 kts | 77° |
| 2026-05-08 06:03 | 33.12905 | 131.19734 | 40953 ft | 577 kts | 77° |
| 2026-05-08 06:04 | 33.14615 | 131.29084 | 40951 ft | 577 kts | 77° |
| 2026-05-08 06:04 | 33.16315 | 131.38454 | 40938 ft | 577 kts | 77° |
| 2026-05-08 06:05 | 33.18007 | 131.47822 | 40935 ft | 578 kts | 77° |
| 2026-05-08 06:05 | 33.19694 | 131.57197 | 40930 ft | 578 kts | 77° |
| 2026-05-08 06:06 | 33.21379 | 131.66599 | 40921 ft | 579 kts | 77° |
| 2026-05-08 06:06 | 33.23844 | 131.75665 | 40920 ft | 578 kts | 68° |
| 2026-05-08 06:07 | 33.26803 | 131.84650 | 40919 ft | 578 kts | 66° |
| 2026-05-08 06:07 | 33.29845 | 131.93547 | 40916 ft | 578 kts | 66° |
| 2026-05-08 06:08 | 33.32867 | 132.02393 | 40918 ft | 579 kts | 66° |
| 2026-05-08 06:08 | 33.35887 | 132.11316 | 40917 ft | 579 kts | 66° |
| 2026-05-08 06:09 | 33.38895 | 132.20262 | 40918 ft | 580 kts | 66° |
| 2026-05-08 06:09 | 33.41898 | 132.29224 | 40913 ft | 580 kts | 66° |
| 2026-05-08 06:10 | 33.44894 | 132.38189 | 40912 ft | 580 kts | 66° |
| 2026-05-08 06:10 | 33.47886 | 132.47158 | 40909 ft | 580 kts | 66° |
| 2026-05-08 06:11 | 33.50888 | 132.56119 | 40911 ft | 579 kts | 66° |
| 2026-05-08 06:11 | 33.53886 | 132.65084 | 40905 ft | 579 kts | 66° |
| 2026-05-08 06:12 | 33.56865 | 132.74064 | 40898 ft | 580 kts | 66° |
| 2026-05-08 06:12 | 33.59829 | 132.83049 | 40893 ft | 580 kts | 66° |
| 2026-05-08 06:13 | 33.62758 | 132.91967 | 40894 ft | 579 kts | 67° |
| 2026-05-08 06:13 | 33.65429 | 133.01194 | 40893 ft | 581 kts | 72° |
| 2026-05-08 06:14 | 33.67744 | 133.10464 | 40892 ft | 581 kts | 72° |
| 2026-05-08 06:14 | 33.70001 | 133.19800 | 40882 ft | 582 kts | 73° |
| 2026-05-08 06:15 | 33.72235 | 133.29145 | 40881 ft | 583 kts | 73° |
| 2026-05-08 06:15 | 33.74472 | 133.38523 | 40861 ft | 584 kts | 73° |
| 2026-05-08 06:16 | 33.76705 | 133.47907 | 40844 ft | 586 kts | 73° |
| 2026-05-08 06:16 | 33.78944 | 133.57339 | 40845 ft | 586 kts | 73° |
| 2026-05-08 06:17 | 33.82274 | 133.71434 | 40847 ft | 584 kts | 73° |
| 2026-05-08 06:17 | 33.84480 | 133.80832 | 40856 ft | 584 kts | 73° |
| 2026-05-08 06:18 | 33.86683 | 133.90241 | 40858 ft | 584 kts | 73° |
| 2026-05-08 06:18 | 33.88880 | 133.99632 | 40851 ft | 582 kts | 73° |
| 2026-05-08 06:19 | 33.91050 | 134.08952 | 40846 ft | 582 kts | 74° |
| 2026-05-08 06:19 | 33.93227 | 134.18353 | 40852 ft | 583 kts | 74° |
| 2026-05-08 06:20 | 33.95393 | 134.27756 | 40845 ft | 582 kts | 74° |
| 2026-05-08 06:20 | 33.97558 | 134.37154 | 40828 ft | 583 kts | 74° |
| 2026-05-08 06:21 | 33.99722 | 134.46586 | 40817 ft | 584 kts | 74° |
| 2026-05-08 06:21 | 34.01877 | 134.56024 | 40798 ft | 584 kts | 74° |
| 2026-05-08 06:22 | 34.04025 | 134.65471 | 40804 ft | 584 kts | 75° |
| 2026-05-08 06:22 | 34.06166 | 134.74926 | 40808 ft | 585 kts | 75° |
| 2026-05-08 06:23 | 34.08297 | 134.84378 | 40819 ft | 585 kts | 75° |
| 2026-05-08 06:23 | 34.10424 | 134.93848 | 40837 ft | 585 kts | 75° |
| 2026-05-08 06:24 | 34.12545 | 135.03321 | 40839 ft | 585 kts | 75° |
| 2026-05-08 06:24 | 34.14657 | 135.12797 | 40837 ft | 584 kts | 75° |
| 2026-05-08 06:25 | 34.16760 | 135.22272 | 40835 ft | 584 kts | 75° |
| 2026-05-08 06:25 | 34.18853 | 135.31740 | 40833 ft | 584 kts | 75° |
| 2026-05-08 06:26 | 34.20929 | 135.41164 | 40829 ft | 583 kts | 75° |
| 2026-05-08 06:26 | 34.23006 | 135.50636 | 40835 ft | 583 kts | 75° |
| 2026-05-08 06:27 | 34.25088 | 135.60167 | 40836 ft | 582 kts | 76° |
| 2026-05-08 06:27 | 34.27146 | 135.69628 | 40836 ft | 582 kts | 76° |
| 2026-05-08 06:28 | 34.29185 | 135.79032 | 40835 ft | 582 kts | 76° |
| 2026-05-08 06:28 | 34.31231 | 135.88499 | 40832 ft | 582 kts | 76° |
| 2026-05-08 06:29 | 34.33270 | 135.97980 | 40826 ft | 582 kts | 76° |
| 2026-05-08 06:29 | 34.35295 | 136.07436 | 40823 ft | 582 kts | 76° |
| 2026-05-08 06:30 | 34.37321 | 136.16947 | 40813 ft | 583 kts | 76° |
| 2026-05-08 06:30 | 34.39339 | 136.26462 | 40810 ft | 584 kts | 76° |
| 2026-05-08 06:31 | 34.41350 | 136.35986 | 40806 ft | 584 kts | 76° |
| 2026-05-08 06:31 | 34.43364 | 136.45539 | 40799 ft | 585 kts | 76° |
| 2026-05-08 06:32 | 34.45368 | 136.55094 | 40792 ft | 586 kts | 76° |
| 2026-05-08 06:32 | 34.47363 | 136.64650 | 40791 ft | 585 kts | 76° |
| 2026-05-08 06:33 | 34.49353 | 136.74220 | 40793 ft | 585 kts | 77° |
| 2026-05-08 06:33 | 34.51335 | 136.83793 | 40789 ft | 585 kts | 77° |
| 2026-05-08 06:34 | 34.53303 | 136.93349 | 40787 ft | 585 kts | 77° |